Aérodrome :
LOGIN :

S'inscrire | Disclaimer

   EN    FR    IT 

 










Légende :    VFR   VFR Marginal   IFR   IFR Intensif   IFR Très Intensif
Visi : 
Plafond : 
>= 8 km
>= 3000ft
5 à 8 km
1000 à 3000 ft
1500m à 5 km
500 à 1000 ft
800 à 1500m
200 à 500 ft
< 800m
< 200 ft
Symboles :   Orages  Brouillard  Fortes neiges  Fortes précipitations  Vent > 20 kt
SIGMETs :   Divers  Orages  Givrage  Turbulence  Onde Orograph.  Cendres Volcan.







- Altitude de l'aérodrome : 529 ft
- Code IATA : CHR
- Voir les cartes d'approche


LFLX - Chateauroux

DERNIER METAR :
  • 230000Z AUTO 24009KT CAVOK 09/07 Q1025 NOSIG

METARs EXPIRÉS :
  • 222330Z AUTO 24007KT CAVOK 09/07 Q1026 NOSIG
  • 222300Z AUTO 25007KT CAVOK 09/07 Q1026 NOSIG
  • 222230Z AUTO 25008KT CAVOK 09/07 Q1026 NOSIG
  • 222200Z AUTO 25009KT 9999 FEW041 OVC060 10/06 Q1026 NOSIG

TAF TAF LFLX
Valide du 23 à 00h jusqu'au 24 à 06h UTC


222300Z 2300/2406 27008KT CAVOK
PROB30
TEMPO 2303/2307 BKN007 BKN030
BECMG 2308/2311 SCT020 SCT100
BECMG 2315/2318 BKN035
TEMPO 2318/2324 4000 -RA
Pas de NOTAMs connus pour ce terrain.



MET'MAP, la Météo Aéronautique d'un coup d'oeil ! - Copyright ORBIFLY Décembre 2007 - Disclaimer

ORBIFLY MET'MAP TEAM :

Programmation & Développement : Alexandra Zaïnal
Conception & Développement : Baudouin d'Aumeries
Co-Programmation & Développement : Marc-Olivier Méhu
Soutien technique & logistique : Manuel Goepfert

Contact : metmap@orbifly.com




SOURCES & CREDITS :

   NOAA